Time;durP1;ratioP1;P1;durP2;ratioP2;P2;SDS_P1;SDS_P2;PMS_P1;PMS_P2;Temp;Humidity;BMP_temperature;BMP_pressure;BME280_temperature;BME280_humidity;BME280_pressure;Samples;Min_cycle;Max_cycle;Signal;HPM_P1;HPM_P2
2021/08/03 09:04:09;;;;;;;3.90;2.17;;;18.10;99.90;;;;;;6277601;22;20392;-94
2021/08/03 09:06:38;;;;;;;4.70;1.95;;;18.20;99.90;;;;;;6286486;22;20856;-95
2021/08/03 09:09:16;;;;;;;4.17;1.87;;;18.60;99.90;;;;;;6260496;22;20384;-93
2021/08/03 09:11:46;;;;;;;4.80;2.10;;;19.10;99.90;;;;;;6257893;22;20396;-94
2021/08/03 09:14:33;;;;;;;3.03;2.13;;;19.00;99.90;;;;;;6263845;22;20384;-95
2021/08/03 09:17:30;;;;;;;4.22;2.10;;;19.10;99.90;;;;;;6289590;22;20403;-96
2021/08/03 09:19:58;;;;;;;3.25;2.17;;;19.10;99.90;;;;;;6260313;22;20667;-93
2021/08/03 09:22:32;;;;;;;2.60;2.00;;;19.10;99.90;;;;;;6287678;22;20367;-94
2021/08/03 09:25:18;;;;;;;2.85;1.83;;;19.20;99.90;;;;;;6285574;22;20390;-95
2021/08/03 09:27:49;;;;;;;2.07;1.63;;;19.60;99.90;;;;;;6283456;22;20395;-94
2021/08/03 09:30:19;;;;;;;5.65;2.22;;;19.50;99.90;;;;;;6265034;22;20396;-95
2021/08/03 09:33:02;;;;;;;4.50;2.20;;;19.20;99.90;;;;;;6261954;22;20389;-96
2021/08/03 09:35:31;;;;;;;5.60;2.20;;;19.10;99.90;;;;;;6264325;22;20442;-96
2021/08/03 09:37:59;;;;;;;3.57;2.17;;;19.30;99.90;;;;;;6253252;22;20415;-96
2021/08/03 09:40:32;;;;;;;3.40;2.00;;;19.40;99.90;;;;;;6277727;22;20385;-95
2021/08/03 09:43:09;;;;;;;5.00;2.10;;;19.80;99.90;;;;;;6255375;22;20442;-96
2021/08/03 09:45:45;;;;;;;3.20;2.08;;;19.80;99.90;;;;;;6261502;22;20411;-96
2021/08/03 09:48:50;;;;;;;2.75;1.80;;;19.80;99.90;;;;;;6198346;23;20880;-96
2021/08/03 09:51:23;;;;;;;3.85;2.30;;;19.60;99.90;;;;;;6191432;22;20384;-94
2021/08/03 09:54:21;;;;;;;4.77;2.10;;;19.60;99.90;;;;;;6258258;22;20377;-96
2021/08/03 09:57:22;;;;;;;3.33;2.22;;;20.00;99.90;;;;;;6263898;22;20463;-95
2021/08/03 10:00:58;;;;;;;2.67;1.80;;;20.20;99.90;;;;;;6141292;23;20402;-96
2021/08/03 10:03:26;;;;;;;3.70;2.00;;;20.30;99.90;;;;;;6154413;23;20397;-96
2021/08/03 10:05:54;;;;;;;2.67;2.00;;;20.20;99.90;;;;;;6132144;23;20395;-96
2021/08/03 10:08:25;;;;;;;4.10;2.15;;;20.30;99.90;;;;;;6161404;23;20480;-95
2021/08/03 10:10:52;;;;;;;3.50;1.80;;;20.40;99.90;;;;;;6159547;23;20401;-96
2021/08/03 10:13:19;;;;;;;2.40;1.77;;;20.50;99.90;;;;;;6160317;23;20392;-96
2021/08/03 10:15:47;;;;;;;2.75;1.90;;;20.80;99.90;;;;;;6159909;23;20783;-96
2021/08/03 10:18:16;;;;;;;2.63;1.88;;;20.90;99.90;;;;;;6160092;23;20385;-96
2021/08/03 10:20:46;;;;;;;2.90;1.60;;;21.00;99.90;;;;;;6158993;23;20452;-96
2021/08/03 10:23:14;;;;;;;1.92;1.23;;;20.80;99.90;;;;;;6172725;23;20399;-96
2021/08/03 10:25:43;;;;;;;2.15;1.52;;;20.70;99.90;;;;;;6182573;23;20389;-96
2021/08/03 10:28:21;;;;;;;2.20;1.40;;;20.40;99.90;;;;;;6164811;23;20389;-96
2021/08/03 10:30:49;;;;;;;2.35;1.67;;;20.20;99.90;;;;;;6159717;23;20409;-95
2021/08/03 10:33:49;;;;;;;2.20;1.43;;;20.10;99.90;;;;;;6159452;23;20386;-96
2021/08/03 10:36:47;;;;;;;4.00;1.55;;;19.90;99.90;;;;;;6194979;23;20495;-96
2021/08/03 10:39:25;;;;;;;1.40;1.20;;;20.10;99.90;;;;;;6247132;23;20443;-96
2021/08/03 10:41:58;;;;;;;2.28;1.67;;;20.30;99.90;;;;;;6221487;23;20409;-96
2021/08/03 10:44:46;;;;;;;3.22;1.70;;;20.30;99.90;;;;;;6232852;22;20847;-96
2021/08/03 10:47:44;;;;;;;5.45;1.80;;;20.60;99.90;;;;;;6232427;23;20753;-95
2021/08/03 10:50:49;;;;;;;3.08;2.10;;;20.80;99.90;;;;;;6228935;23;20386;-96
2021/08/03 10:53:25;;;;;;;3.13;1.75;;;20.70;99.90;;;;;;6111832;23;20400;-96
2021/08/03 10:56:02;;;;;;;3.47;1.83;;;20.70;99.90;;;;;;6109518;23;20393;-96
2021/08/03 10:58:43;;;;;;;;;;;;;;;;;;;;;
2021/08/03 11:02:42;;;;;;;;;;;;;;;;;;;;;
2021/08/03 11:05:35;;;;;;;3.33;1.83;;;20.70;99.90;;;;;;5969098;24;20438;-96
2021/08/03 11:08:58;;;;;;;5.63;1.77;;;20.70;99.90;;;;;;5967126;24;20430;-96
2021/08/03 11:12:38;;;;;;;3.33;2.00;;;20.80;99.90;;;;;;5890036;24;20423;-96
2021/08/03 11:15:46;;;;;;;;;;;;;;;;;;;;;
2021/08/03 13:15:52;;;;;;;;;;;;;;;;;;;;;
2021/08/03 13:18:20;;;;;;;3.53;1.33;;;24.50;84.40;;;;;;6022328;23;20501;-94
2021/08/03 13:20:48;;;;;;;2.38;1.33;;;24.90;91.70;;;;;;6211945;22;20710;-95
2021/08/03 13:23:56;;;;;;;3.10;1.27;;;25.00;90.40;;;;;;6300536;22;20372;-94
2021/08/03 13:27:09;;;;;;;1.98;1.10;;;25.40;85.00;;;;;;6295764;22;20401;-92
2021/08/03 13:29:42;;;;;;;4.75;1.40;;;25.10;84.30;;;;;;6293071;22;20396;-92
2021/08/03 13:32:12;;;;;;;2.67;1.40;;;24.90;87.00;;;;;;6261235;22;20372;-95
2021/08/03 13:44:03;;;;;;;1.67;1.27;;;25.90;82.00;;;;;;6282536;22;20403;-94
2021/08/03 13:46:36;;;;;;;2.13;1.40;;;26.10;79.90;;;;;;6265136;22;20395;31
2021/08/03 13:53:21;;;;;;;1.85;1.30;;;26.40;87.70;;;;;;6271435;22;20396;31
2021/08/03 13:56:18;;;;;;;2.20;1.37;;;26.60;79.00;;;;;;6196801;22;20405;-96
2021/08/03 13:59:31;;;;;;;4.50;1.45;;;26.90;86.90;;;;;;6194288;23;20854;-96
2021/08/03 14:05:09;;;;;;;1.85;1.30;;;27.50;84.40;;;;;;6265269;22;20392;-96
2021/08/03 14:08:20;;;;;;;2.90;1.20;;;28.00;80.10;;;;;;6267294;22;20411;-95
2021/08/03 14:11:20;;;;;;;3.00;1.50;;;28.80;81.90;;;;;;6258023;22;20399;-96
2021/08/03 14:36:52;;;;;;;3.10;1.40;;;27.60;71.20;;;;;;6278966;22;20396;-93
2021/08/03 14:39:26;;;;;;;3.00;1.30;;;27.80;76.00;;;;;;6278669;22;20376;-95
2021/08/03 14:45:17;;;;;;;1.98;1.20;;;28.90;77.90;;;;;;6247743;22;20371;-94
2021/08/03 14:51:36;;;;;;;2.35;1.20;;;28.90;75.20;;;;;;6221754;23;20414;-95
2021/08/03 14:54:19;;;;;;;2.15;1.30;;;28.80;67.90;;;;;;6163227;23;20382;-96
2021/08/03 14:56:54;;;;;;;1.92;1.30;;;28.80;68.80;;;;;;6191980;23;20395;-93
2021/08/03 15:01:59;;;;;;;2.30;1.25;;;29.20;68.40;;;;;;6258198;22;20484;-95
2021/08/03 15:04:30;;;;;;;2.05;1.38;;;28.50;65.10;;;;;;6245415;23;20439;-95
2021/08/03 15:13:05;;;;;;;2.45;1.20;;;25.50;75.00;;;;;;6189971;23;20397;-96
2021/08/03 15:22:24;;;;;;;1.40;1.08;;;24.80;76.90;;;;;;6280045;22;20366;-96
2021/08/03 15:24:56;;;;;;;1.27;1.13;;;26.50;76.10;;;;;;6279239;22;20398;-96
2021/08/03 15:34:28;;;;;;;3.20;1.20;;;26.10;74.50;;;;;;6286363;22;20426;-96
2021/08/03 15:37:09;;;;;;;2.83;1.20;;;26.80;72.60;;;;;;6268238;22;20476;-95
2021/08/03 15:39:38;;;;;;;1.42;1.00;;;27.20;70.90;;;;;;6280955;22;20403;-95
2021/08/03 15:42:10;;;;;;;2.85;1.40;;;27.20;72.30;;;;;;6256644;22;20395;-95
2021/08/03 15:44:51;;;;;;;2.03;1.10;;;27.30;70.30;;;;;;6278454;22;20404;-94
2021/08/03 15:47:27;;;;;;;1.20;1.10;;;27.40;69.80;;;;;;6277778;22;20388;-96
2021/08/03 15:50:11;;;;;;;2.08;1.30;;;27.30;72.60;;;;;;6275141;22;20376;-94
2021/08/03 15:52:44;;;;;;;2.38;1.30;;;27.80;70.00;;;;;;6279477;22;20486;-95
2021/08/03 15:55:22;;;;;;;3.10;1.40;;;28.00;68.70;;;;;;6278473;22;20380;-95
2021/08/03 16:00:30;;;;;;;2.03;1.20;;;28.00;67.70;;;;;;6275910;22;20415;-93
2021/08/03 16:08:24;;;;;;;3.40;1.30;;;26.70;71.20;;;;;;6229034;23;20387;-96
2021/08/03 16:11:00;;;;;;;2.53;1.42;;;25.50;74.40;;;;;;6218551;23;20920;-96
2021/08/03 16:13:47;;;;;;;2.25;1.42;;;24.90;75.60;;;;;;6224561;23;20355;-95
2021/08/03 16:16:15;;;;;;;2.60;1.33;;;24.10;76.00;;;;;;6218612;23;20384;-94
2021/08/03 16:18:51;;;;;;;1.60;1.48;;;23.50;78.20;;;;;;6225115;23;20394;-96
2021/08/03 16:21:25;;;;;;;2.00;1.35;;;23.00;81.70;;;;;;6226307;23;20409;-95
2021/08/03 16:23:53;;;;;;;3.13;1.40;;;22.70;82.60;;;;;;6222267;23;20402;-95
2021/08/03 16:26:31;;;;;;;1.58;1.27;;;22.70;82.70;;;;;;6225215;23;20942;-96
2021/08/03 16:31:49;;;;;;;2.50;1.40;;;23.40;80.90;;;;;;6287199;22;20404;-95
2021/08/03 16:34:57;;;;;;;1.45;1.10;;;23.60;82.50;;;;;;6292220;22;20362;-96
2021/08/03 16:47:39;;;;;;;1.38;1.15;;;23.30;78.90;;;;;;6192119;23;20378;-95
2021/08/03 17:00:16;;;;;;;;;;;;;;;;;;;;;
2021/08/03 17:03:12;;;;;;;4.25;1.42;;;20.40;96.90;;;;;;6268311;22;20378;-91
2021/08/03 17:05:55;;;;;;;2.97;1.30;;;20.20;94.50;;;;;;6251578;22;20412;-92
2021/08/03 17:08:35;;;;;;;2.10;1.40;;;20.00;97.30;;;;;;6252318;22;20384;-93
2021/08/03 17:11:16;;;;;;;6.72;1.40;;;19.80;96.90;;;;;;6251642;22;20467;-93
2021/08/03 17:13:49;;;;;;;3.85;1.60;;;19.80;99.90;;;;;;6251735;22;20459;-94
2021/08/03 17:16:24;;;;;;;5.75;1.48;;;19.70;99.90;;;;;;6251615;22;20396;-94
2021/08/03 17:18:55;;;;;;;4.75;1.77;;;19.50;99.90;;;;;;6251495;22;20368;-94
2021/08/03 17:21:30;;;;;;;3.88;1.58;;;19.30;99.90;;;;;;6251244;22;20438;-93
2021/08/03 17:23:59;;;;;;;3.97;1.65;;;19.10;99.90;;;;;;6251544;22;20404;-94
2021/08/03 17:26:32;;;;;;;4.50;1.55;;;19.00;99.90;;;;;;6251535;22;20475;-96
2021/08/03 17:29:01;;;;;;;2.95;1.50;;;18.90;99.90;;;;;;6251474;22;20753;-94
2021/08/03 17:34:22;;;;;;;4.20;1.60;;;18.70;99.90;;;;;;6284505;22;20392;-96
2021/08/03 17:37:05;;;;;;;5.40;1.70;;;18.70;99.90;;;;;;6291302;22;20369;-96
2021/08/03 17:40:14;;;;;;;2.20;1.50;;;18.70;99.90;;;;;;6267917;22;20464;-96
2021/08/03 17:43:48;;;;;;;;;;;;;;;;;;;;;
2021/08/03 17:46:46;;;;;;;3.38;1.77;;;18.40;99.90;;;;;;6274393;22;20395;-96
2021/08/03 17:49:30;;;;;;;3.65;1.73;;;18.30;99.90;;;;;;6265631;22;20377;-96
2021/08/03 17:52:24;;;;;;;3.50;1.80;;;18.20;99.90;;;;;;6286796;22;20395;-96
2021/08/03 17:58:14;;;;;;;6.53;2.40;;;18.10;99.90;;;;;;6283341;22;20384;-96
2021/08/03 18:00:55;;;;;;;4.32;2.30;;;18.00;99.90;;;;;;6287825;22;20407;-96
2021/08/03 18:03:39;;;;;;;11.27;2.63;;;17.90;99.90;;;;;;6283037;22;20388;-96
2021/08/03 18:06:20;;;;;;;6.22;2.53;;;17.80;99.90;;;;;;6281988;22;20402;-96
2021/08/03 18:08:49;;;;;;;8.15;2.35;;;17.50;99.90;;;;;;6282057;22;20762;-96
2021/08/03 18:11:17;;;;;;;4.38;2.40;;;17.30;99.90;;;;;;6282531;22;20395;-96
2021/08/03 18:13:56;;;;;;;;;;;;;;;;;;;;;
2021/08/03 18:16:42;;;;;;;6.60;2.90;;;17.10;99.90;;;;;;6281420;22;20430;-96
2021/08/03 18:22:20;;;;;;;5.20;3.38;;;16.70;99.90;;;;;;6220015;23;20477;-96
2021/08/03 18:25:09;;;;;;;6.00;3.30;;;16.50;99.90;;;;;;6197655;23;20383;-96
2021/08/03 18:31:41;;;;;;;8.88;3.35;;;16.30;99.90;;;;;;6273592;22;20396;-96
2021/08/03 18:35:09;;;;;;;6.45;3.28;;;16.20;99.90;;;;;;6054283;23;20904;-96
2021/08/03 18:38:09;;;;;;;8.50;3.67;;;16.10;99.90;;;;;;6052298;23;20392;-96
2021/08/03 18:40:56;;;;;;;8.75;4.07;;;16.00;99.90;;;;;;6055847;23;20734;-96
2021/08/03 18:43:34;;;;;;;7.15;3.65;;;15.90;99.90;;;;;;6076889;23;20427;-96
2021/08/03 18:46:08;;;;;;;7.80;3.72;;;15.80;99.90;;;;;;6047466;23;20422;-96
2021/08/03 18:48:42;;;;;;;7.38;3.97;;;15.80;99.90;;;;;;6046273;23;20396;-95
2021/08/03 18:51:10;;;;;;;7.22;4.10;;;15.70;99.90;;;;;;6049899;23;20415;-95
2021/08/03 18:53:46;;;;;;;8.43;3.75;;;15.60;99.90;;;;;;6055367;23;20456;-96
2021/08/03 18:56:38;;;;;;;7.40;3.97;;;15.60;99.90;;;;;;6000546;23;20406;-95
2021/08/03 18:59:33;;;;;;;8.80;3.70;;;15.60;99.90;;;;;;6012050;22;20435;-96
2021/08/03 19:02:18;;;;;;;7.28;3.78;;;15.60;99.90;;;;;;6262869;22;20877;-96
2021/08/03 19:04:56;;;;;;;6.30;3.80;;;15.50;99.90;;;;;;6263913;22;20457;-95
2021/08/03 19:08:04;;;;;;;7.53;3.63;;;15.40;99.90;;;;;;6263319;22;20365;-95
2021/08/03 19:14:05;;;;;;;7.07;3.55;;;15.30;99.90;;;;;;6229164;22;20884;-96
2021/08/03 19:16:38;;;;;;;5.33;3.27;;;15.20;99.90;;;;;;6253215;23;20690;-96
2021/08/03 19:19:22;;;;;;;7.03;3.45;;;15.20;99.90;;;;;;6225528;23;20388;-96
2021/08/03 19:22:02;;;;;;;7.45;3.55;;;15.20;99.90;;;;;;6229361;23;20407;-95
2021/08/03 19:24:38;;;;;;;5.63;3.60;;;15.20;99.90;;;;;;6226382;23;20439;-96
2021/08/03 19:27:36;;;;;;;6.78;3.70;;;15.20;99.90;;;;;;6227755;23;20446;-95
2021/08/03 19:30:34;;;;;;;6.18;3.30;;;15.10;99.90;;;;;;6228905;23;20367;-96
2021/08/03 19:33:08;;;;;;;5.60;3.47;;;14.90;99.90;;;;;;6080848;23;20406;-96
2021/08/03 19:35:38;;;;;;;5.68;3.50;;;15.00;99.90;;;;;;6105301;23;20390;-96
2021/08/03 19:38:13;;;;;;;8.55;3.60;;;14.90;99.90;;;;;;6084784;23;20625;-96
2021/08/03 19:41:33;;;;;;;10.40;3.50;;;14.90;99.90;;;;;;6082634;23;20391;-96
2021/08/03 19:44:21;;;;;;;5.70;3.30;;;14.90;99.90;;;;;;6019102;23;20549;-96
2021/08/03 19:47:10;;;;;;;4.40;2.83;;;14.90;99.90;;;;;;5995305;23;20392;-96
2021/08/03 19:50:18;;;;;;;7.90;3.75;;;14.80;99.90;;;;;;5996422;23;20407;-96
2021/08/03 19:53:31;;;;;;;5.45;3.50;;;14.80;99.90;;;;;;6195366;22;20392;-96
2021/08/03 20:01:48;;;;;;;8.97;4.73;;;14.40;99.90;;;;;;6294637;22;20392;-96
2021/08/03 20:05:09;;;;;;;8.03;6.00;;;14.30;99.90;;;;;;6290843;22;20420;-96
2021/08/03 20:10:31;;;;;;;11.67;7.73;;;13.90;99.90;;;;;;6237994;23;20564;-95
2021/08/03 20:13:50;;;;;;;5.63;3.85;;;13.80;99.90;;;;;;6241293;22;20396;-96
2021/08/03 20:22:15;;;;;;;50.55;6.78;;;13.30;99.90;;;;;;6224722;22;20400;-96
2021/08/03 20:24:50;;;;;;;241.48;15.93;;;13.10;99.90;;;;;;6285713;22;20388;-95
2021/08/03 20:27:38;;;;;;;13.02;6.18;;;13.00;99.90;;;;;;6285911;22;20403;-95
2021/08/03 20:30:12;;;;;;;9.30;4.60;;;12.90;99.90;;;;;;6272009;22;20445;-96
2021/08/03 20:33:09;;;;;;;8.02;4.38;;;12.70;99.90;;;;;;6216675;23;20400;-95
2021/08/03 20:35:38;;;;;;;5.05;2.70;;;12.60;99.90;;;;;;6224449;23;20407;-96
2021/08/03 20:38:09;;;;;;;0.10;0.10;;;12.40;99.90;;;;;;6225921;23;20471;-96
2021/08/03 20:40:45;;;;;;;0.10;0.10;;;12.30;99.90;;;;;;6223876;23;20391;-96
2021/08/03 20:43:22;;;;;;;0.15;0.15;;;12.30;99.90;;;;;;6220064;23;20384;-96
2021/08/03 20:46:12;;;;;;;0.10;0.10;;;12.30;99.90;;;;;;6224571;23;20384;-95
2021/08/03 20:48:54;;;;;;;0.30;0.30;;;12.30;99.90;;;;;;6223406;23;20407;-96
2021/08/03 20:51:31;;;;;;;0.30;0.30;;;12.30;99.90;;;;;;6222486;23;20411;-96
2021/08/03 20:56:59;;;;;;;0.10;0.10;;;12.20;99.90;;;;;;6234633;22;20404;-94
2021/08/03 20:59:28;;;;;;;0.10;0.10;;;12.20;99.90;;;;;;6197454;23;20443;-96
2021/08/03 21:02:16;;;;;;;0.17;0.17;;;12.20;99.90;;;;;;6204732;23;20387;-96
2021/08/03 21:04:57;;;;;;;0.10;0.10;;;12.20;99.90;;;;;;6203117;23;20462;-96
2021/08/03 21:07:39;;;;;;;0.10;0.10;;;12.20;99.90;;;;;;6203532;23;20449;-96
2021/08/03 21:10:17;;;;;;;0.10;0.10;;;12.20;99.90;;;;;;6221911;23;20384;-91
2021/08/03 21:12:47;;;;;;;0.20;0.20;;;12.20;99.90;;;;;;6229118;23;20406;-96
2021/08/03 21:15:18;;;;;;;0.20;0.20;;;12.20;99.90;;;;;;6196919;23;20372;-90
2021/08/03 21:17:59;;;;;;;0.10;0.10;;;12.20;99.90;;;;;;6203168;23;20563;-90
2021/08/03 21:20:34;;;;;;;0.10;0.10;;;12.20;99.90;;;;;;6226277;23;20449;-90
2021/08/03 21:23:01;;;;;;;0.20;0.20;;;12.10;99.90;;;;;;6225867;23;20386;-91
2021/08/03 21:25:30;;;;;;;0.30;0.30;;;12.10;99.90;;;;;;6199850;23;20388;-89
2021/08/03 21:27:58;;;;;;;0.30;0.30;;;12.10;99.90;;;;;;6227367;23;20390;-94
2021/08/03 21:30:26;;;;;;;0.10;0.10;;;12.10;99.90;;;;;;6226430;23;20382;-96
2021/08/03 21:32:55;;;;;;;0.10;0.10;;;12.00;99.90;;;;;;6226986;23;20429;-91
2021/08/03 21:35:39;;;;;;;0.10;0.10;;;12.00;99.90;;;;;;6230346;23;20373;-96
2021/08/03 21:38:19;;;;;;;0.10;0.10;;;12.00;99.90;;;;;;6255911;23;20382;-91
2021/08/03 21:41:10;;;;;;;0.10;0.10;;;12.00;99.90;;;;;;6255978;23;20384;-96
2021/08/03 21:43:55;;;;;;;0.10;0.10;;;11.90;99.90;;;;;;6233853;23;20420;-91
2021/08/03 21:46:33;;;;;;;0.17;0.17;;;11.90;99.90;;;;;;6227220;23;20394;-91
2021/08/03 21:49:00;;;;;;;0.20;0.20;;;11.90;99.90;;;;;;6197473;23;20390;-91
2021/08/03 21:51:38;;;;;;;0.10;0.10;;;11.90;99.90;;;;;;6223562;23;20380;-96
2021/08/03 21:54:31;;;;;;;0.10;0.10;;;11.90;99.90;;;;;;6250223;22;20436;-96
2021/08/03 21:57:03;;;;;;;0.10;0.10;;;11.90;99.90;;;;;;6200706;23;20384;-96
2021/08/03 21:59:51;;;;;;;0.10;0.10;;;11.90;99.90;;;;;;6196664;23;20761;-95
2021/08/03 22:02:22;;;;;;;0.10;0.10;;;11.90;99.90;;;;;;6160907;23;20411;-91
2021/08/03 22:04:51;;;;;;;0.10;0.10;;;11.90;99.90;;;;;;6136640;23;20395;-90
2021/08/03 22:07:18;;;;;;;0.10;0.10;;;11.90;99.90;;;;;;6159712;23;20438;-91
2021/08/03 22:09:51;;;;;;;0.10;0.10;;;11.80;99.90;;;;;;6156924;23;20397;-92
2021/08/03 22:12:18;;;;;;;0.20;0.20;;;11.80;99.90;;;;;;6131994;23;20470;-91
2021/08/03 22:14:48;;;;;;;0.10;0.10;;;11.70;99.90;;;;;;6136104;23;20417;-91
2021/08/03 22:17:50;;;;;;;0.10;0.10;;;11.70;99.90;;;;;;6137468;23;20383;-92
2021/08/03 22:20:49;;;;;;;0.10;0.10;;;11.70;99.90;;;;;;6048864;23;20398;-92
2021/08/03 22:23:46;;;;;;;0.10;0.10;;;11.70;99.90;;;;;;6047814;23;20448;-91
2021/08/03 22:26:40;;;;;;;0.10;0.10;;;11.70;99.90;;;;;;6049342;23;20886;-90
2021/08/03 22:29:25;;;;;;;0.10;0.10;;;11.70;99.90;;;;;;6039370;23;20401;-91
2021/08/03 22:32:06;;;;;;;0.10;0.10;;;11.70;99.90;;;;;;6021160;23;20435;-96
2021/08/03 22:34:46;;;;;;;0.17;0.17;;;11.70;99.90;;;;;;6072673;23;20429;-91
2021/08/03 22:37:26;;;;;;;0.20;0.20;;;11.70;99.90;;;;;;6057995;23;20392;-91
2021/08/03 22:40:10;;;;;;;0.10;0.10;;;11.70;99.90;;;;;;6071802;23;20443;-91
2021/08/03 22:42:51;;;;;;;0.10;0.10;;;11.70;99.90;;;;;;6072883;23;20396;-91
2021/08/03 22:46:11;;;;;;;0.40;0.30;;;11.70;99.90;;;;;;6050298;23;20392;-91
2021/08/03 22:49:04;;;;;;;0.10;0.10;;;11.70;99.90;;;;;;5995857;23;20407;-92
2021/08/03 22:52:56;;;;;;;0.10;0.10;;;11.70;99.90;;;;;;6012456;23;20391;-90
2021/08/03 22:59:15;;;;;;;0.10;0.10;;;11.70;99.90;;;;;;6018559;23;20743;-91
2021/08/03 23:02:19;;;;;;;0.10;0.10;;;11.80;99.90;;;;;;6022518;23;20398;-92
2021/08/03 23:05:23;;;;;;;0.15;0.15;;;11.80;99.90;;;;;;6083683;23;20485;-91
2021/08/03 23:08:44;;;;;;;0.10;0.10;;;11.90;99.90;;;;;;6011076;23;20393;-91
2021/08/03 23:12:29;;;;;;;0.10;0.10;;;11.90;99.90;;;;;;6075954;23;20749;-91
2021/08/03 23:15:17;;;;;;;0.20;0.20;;;11.90;99.90;;;;;;6104618;23;20417;-91
2021/08/03 23:18:23;;;;;;;0.30;0.30;;;11.90;99.90;;;;;;6095419;23;20431;-91
2021/08/03 23:21:11;;;;;;;0.10;0.10;;;11.90;99.90;;;;;;6082780;23;20399;-91
2021/08/03 23:23:50;;;;;;;0.10;0.10;;;11.90;99.90;;;;;;6114106;23;20743;-91
2021/08/03 23:26:24;;;;;;;0.10;0.10;;;11.90;99.90;;;;;;6187801;23;20366;-91
2021/08/03 23:29:19;;;;;;;0.30;0.30;;;11.90;99.90;;;;;;6257237;22;20394;-91
2021/08/03 23:32:11;;;;;;;0.10;0.10;;;12.00;99.90;;;;;;6227519;23;20366;-91
2021/08/03 23:34:49;;;;;;;0.60;0.40;;;12.00;99.90;;;;;;6256418;22;20384;-91
2021/08/03 23:37:34;;;;;;;0.20;0.20;;;12.00;99.90;;;;;;6258314;23;20357;-91
2021/08/03 23:40:16;;;;;;;0.20;0.20;;;12.10;99.90;;;;;;6231524;23;20365;-95
2021/08/03 23:43:01;;;;;;;0.10;0.10;;;12.00;99.90;;;;;;6251812;23;20378;-92
2021/08/03 23:45:29;;;;;;;0.20;0.20;;;12.10;99.90;;;;;;6230860;23;20380;-91
2021/08/03 23:47:59;;;;;;;0.10;0.10;;;12.10;99.90;;;;;;6225308;23;20386;-92
2021/08/03 23:50:35;;;;;;;0.10;0.10;;;12.20;99.90;;;;;;6226455;23;20878;-90
2021/08/03 23:53:06;;;;;;;0.10;0.10;;;12.10;99.90;;;;;;6249965;23;20386;-91
2021/08/03 23:55:48;;;;;;;0.17;0.17;;;12.10;99.90;;;;;;6233468;22;20392;-91
2021/08/03 23:58:18;;;;;;;0.30;0.30;;;12.10;99.90;;;;;;6228339;23;20414;-90
